createdAt,value
2023-04-05T00:00:12.627Z,4.76
2023-04-05T00:04:14.831Z,4.87
2023-04-05T00:08:24.142Z,4.82
2023-04-05T00:12:24.712Z,4.65
2023-04-05T00:16:27.922Z,4.53
2023-04-05T00:20:29.508Z,4.39
2023-04-05T00:24:31.356Z,4.28
2023-04-05T00:28:32.021Z,4.13
2023-04-05T00:32:35.652Z,4.03
2023-04-05T00:36:36.031Z,3.96
2023-04-05T00:40:36.654Z,3.87
2023-04-05T00:44:37.832Z,3.83
2023-04-05T00:48:42.542Z,3.75
2023-04-05T00:52:43.751Z,3.85
2023-04-05T00:56:45.905Z,3.78
2023-04-05T01:00:59.661Z,3.72
2023-04-05T01:05:12.043Z,3.73
2023-04-05T01:09:32.542Z,3.57
2023-04-05T01:13:33.616Z,3.42
2023-04-05T01:17:37.152Z,3.36
2023-04-05T01:22:14.419Z,3.19
2023-04-05T01:27:02.473Z,3.16
2023-04-05T01:31:11.700Z,3.22
2023-04-05T01:35:24.817Z,3.18
2023-04-05T01:39:27.390Z,2.96
2023-04-05T01:43:29.046Z,3.02
2023-04-05T01:47:32.402Z,3.02
2023-04-05T01:51:33.454Z,2.97
2023-04-05T01:55:34.156Z,2.90
2023-04-05T01:59:36.604Z,2.90
2023-04-05T02:03:39.774Z,2.87
2023-04-05T02:07:40.290Z,2.88
2023-04-05T02:11:40.898Z,2.67
2023-04-05T02:15:41.238Z,2.66
2023-04-05T02:19:47.169Z,2.71
2023-04-05T02:23:47.500Z,2.66
2023-04-05T02:27:48.585Z,2.58
2023-04-05T02:31:49.374Z,2.59
2023-04-05T02:35:56.644Z,2.53
2023-04-05T02:39:57.166Z,2.49
2023-04-05T02:43:58.012Z,2.51
2023-04-05T02:47:58.553Z,2.34
2023-04-05T02:52:03.177Z,2.36
2023-04-05T02:56:03.933Z,2.37
2023-04-05T03:00:09.146Z,2.41
2023-04-05T03:04:09.678Z,2.38
2023-04-05T03:08:19.016Z,2.44
2023-04-05T03:12:30.632Z,2.60
2023-04-05T03:16:31.509Z,2.48
2023-04-05T03:20:40.401Z,2.41
2023-04-05T03:24:51.061Z,2.21
2023-04-05T03:28:53.015Z,2.22
2023-04-05T03:33:01.464Z,2.26
2023-04-05T03:37:18.062Z,2.22
2023-04-05T03:41:26.410Z,2.14
2023-04-05T03:45:27.385Z,1.91
2023-04-05T03:49:27.828Z,1.91
2023-04-05T03:53:29.760Z,1.94
2023-04-05T03:57:35.960Z,1.84
2023-04-05T04:01:46.527Z,1.78
2023-04-05T04:05:48.573Z,1.51
2023-04-05T04:09:49.224Z,1.63
2023-04-05T04:13:53.305Z,1.60
2023-04-05T04:17:59.510Z,1.37
2023-04-05T04:22:20.996Z,1.36
2023-04-05T04:26:41.198Z,1.49
2023-04-05T04:31:05.264Z,1.41
2023-04-05T04:35:28.172Z,1.45
2023-04-05T04:39:36.157Z,1.43
2023-04-05T04:44:05.731Z,1.58
2023-04-05T04:48:19.052Z,1.53
2023-04-05T04:52:29.342Z,1.45
2023-04-05T04:56:30.080Z,1.41
2023-04-05T05:00:32.278Z,1.47
2023-04-05T05:04:37.941Z,1.43
2023-04-05T05:08:38.510Z,1.55
2023-04-05T05:12:39.006Z,1.67
2023-04-05T05:16:39.538Z,1.60
2023-04-05T05:20:43.456Z,1.84
2023-04-05T05:24:44.443Z,1.86
2023-04-05T05:28:46.316Z,1.79
2023-04-05T05:32:46.803Z,2.15
2023-04-05T05:36:50.053Z,1.90
2023-04-05T05:40:50.670Z,1.75
2023-04-05T05:44:51.112Z,1.77
2023-04-05T05:48:51.682Z,1.77
2023-04-05T05:52:54.944Z,1.87
2023-04-05T05:56:59.546Z,1.86
2023-04-05T06:01:00.055Z,1.95
2023-04-05T06:05:02.348Z,2.30
2023-04-05T06:09:06.416Z,2.72
2023-04-05T06:13:06.811Z,3.15
2023-04-05T06:17:07.115Z,3.77
2023-04-05T06:21:07.594Z,4.38
2023-04-05T06:25:13.270Z,4.87
2023-04-05T06:29:13.660Z,5.41
2023-04-05T06:33:13.969Z,5.79
2023-04-05T06:37:14.536Z,6.36
2023-04-05T06:41:17.690Z,6.56
2023-04-05T06:45:21.025Z,6.89
2023-04-05T06:49:21.497Z,7.10
2023-04-05T06:53:21.867Z,7.38
2023-04-05T06:57:24.935Z,7.80
2023-04-05T07:01:26.492Z,8.05
2023-04-05T07:05:27.105Z,8.23
2023-04-05T07:09:29.466Z,8.48
2023-04-05T07:13:32.851Z,8.59
2023-04-05T07:17:33.432Z,8.51
2023-04-05T07:21:33.946Z,8.61
2023-04-05T07:25:35.420Z,8.93
2023-04-05T07:29:41.013Z,9.14
2023-04-05T07:33:41.642Z,8.98
2023-04-05T07:37:42.082Z,9.26
2023-04-05T07:41:43.272Z,9.58
2023-04-05T07:45:46.563Z,9.78
2023-04-05T07:49:47.065Z,10.08
2023-04-05T07:53:47.544Z,10.61
2023-04-05T07:57:48.095Z,10.65
2023-04-05T08:01:51.575Z,10.78
2023-04-05T08:05:54.741Z,10.55
2023-04-05T08:09:57.791Z,10.28
2023-04-05T08:13:58.300Z,10.37
2023-04-05T08:18:01.473Z,11.28
2023-04-05T08:22:01.866Z,12.01
2023-04-05T08:26:03.850Z,12.07
2023-04-05T08:30:04.454Z,12.00
2023-04-05T08:34:11.101Z,11.71
2023-04-05T08:38:12.441Z,11.36
2023-04-05T08:42:20.016Z,11.97
2023-04-05T08:46:23.744Z,12.51
2023-04-05T08:50:28.215Z,13.21
2023-04-05T08:54:31.573Z,13.19
2023-04-05T08:58:34.468Z,13.49
2023-04-05T09:02:36.546Z,12.75
2023-04-05T09:06:40.409Z,13.03
2023-04-05T09:10:41.178Z,14.30
2023-04-05T09:14:46.463Z,15.40
2023-04-05T09:18:49.509Z,16.29
2023-04-05T09:22:52.619Z,15.99
2023-04-05T09:27:08.526Z,14.50
2023-04-05T09:31:10.651Z,15.73
2023-04-05T09:35:22.857Z,15.52
2023-04-05T09:39:33.165Z,16.45
2023-04-05T09:43:43.109Z,16.68
2023-04-05T09:51:50.016Z,15.83
2023-04-05T09:55:53.704Z,15.58
2023-04-05T09:59:57.687Z,14.98
2023-04-05T10:04:02.959Z,14.66
2023-04-05T10:08:07.215Z,14.83
2023-04-05T10:12:12.077Z,12.79
2023-04-05T10:16:24.206Z,14.43
2023-04-05T10:20:27.012Z,15.13
2023-04-05T10:24:47.238Z,15.35
2023-04-05T10:28:55.490Z,14.94
2023-04-05T10:33:19.975Z,15.20
2023-04-05T10:37:39.663Z,16.23
2023-04-05T10:41:46.284Z,17.17
2023-04-05T10:45:55.010Z,17.75
2023-04-05T10:50:03.237Z,15.95
2023-04-05T10:54:05.344Z,15.82
2023-04-05T10:58:07.543Z,17.08
2023-04-05T11:02:12.572Z,17.81
2023-04-05T11:06:35.707Z,18.16
2023-04-05T11:10:39.943Z,17.87
2023-04-05T11:14:43.674Z,18.07
2023-04-05T11:18:52.283Z,18.87
2023-04-05T11:22:58.066Z,20.69
2023-04-05T11:27:01.930Z,19.59
2023-04-05T11:31:19.616Z,19.54
2023-04-05T11:35:26.061Z,20.58
2023-04-05T11:39:31.179Z,19.97
2023-04-05T11:43:34.785Z,19.22
2023-04-05T11:47:41.331Z,18.63
2023-04-05T11:51:49.230Z,17.25
2023-04-05T11:55:55.546Z,16.40
2023-04-05T11:59:56.954Z,15.79
2023-04-05T12:03:59.174Z,15.75
2023-04-05T12:08:03.308Z,14.82
2023-04-05T12:12:03.780Z,15.27
2023-04-05T12:16:06.434Z,16.10
2023-04-05T12:20:08.599Z,16.94
2023-04-05T12:24:13.427Z,19.83
2023-04-05T12:28:13.913Z,20.59
2023-04-05T12:32:14.797Z,21.15
2023-04-05T12:36:18.693Z,23.39
2023-04-05T12:40:25.585Z,24.21
2023-04-05T12:44:34.844Z,23.37
2023-04-05T12:48:35.347Z,20.95
2023-04-05T12:52:37.473Z,19.68
2023-04-05T12:56:42.313Z,19.24
2023-04-05T13:00:42.710Z,21.29
2023-04-05T13:04:43.523Z,21.93
2023-04-05T13:08:43.881Z,23.49
2023-04-05T13:12:47.331Z,25.13
2023-04-05T13:16:47.655Z,26.04
2023-04-05T13:20:49.529Z,26.99
2023-04-05T13:24:52.118Z,25.54
2023-04-05T13:28:55.174Z,23.58
2023-04-05T13:32:55.772Z,24.52
2023-04-05T13:36:56.404Z,23.49
2023-04-05T13:40:56.872Z,21.79
2023-04-05T13:45:00.107Z,22.62
2023-04-05T13:49:02.240Z,24.38
2023-04-05T13:53:02.658Z,22.29
2023-04-05T13:57:03.704Z,21.79
2023-04-05T14:01:06.937Z,22.18
2023-04-05T14:05:08.342Z,20.90
2023-04-05T14:09:08.787Z,21.67
2023-04-05T14:13:13.471Z,23.76
2023-04-05T14:17:16.923Z,25.39
2023-04-05T14:21:17.380Z,26.33
2023-04-05T14:25:18.242Z,25.74
2023-04-05T14:29:19.088Z,26.12
2023-04-05T14:33:22.291Z,24.81
2023-04-05T14:37:22.757Z,24.61
2023-04-05T14:41:27.262Z,25.03
2023-04-05T14:45:28.902Z,25.56
2023-04-05T14:49:32.792Z,25.53
2023-04-05T14:53:34.224Z,24.47
2023-04-05T14:57:34.668Z,22.61
2023-04-05T15:01:35.451Z,20.29
2023-04-05T15:05:39.082Z,18.89
2023-04-05T15:09:39.713Z,18.21
2023-04-05T15:13:40.468Z,16.98
2023-04-05T15:17:41.511Z,16.79
2023-04-05T15:21:44.746Z,17.23
2023-04-05T15:25:46.359Z,19.48
2023-04-05T15:29:48.932Z,20.13
2023-04-05T15:33:53.081Z,18.57
2023-04-05T15:37:57.065Z,17.80
2023-04-05T15:42:01.848Z,17.05
2023-04-05T15:46:02.260Z,16.27
2023-04-05T15:50:02.895Z,15.82
2023-04-05T15:54:07.032Z,15.24
2023-04-05T15:58:07.795Z,14.96
2023-04-05T16:02:10.727Z,15.57
2023-04-05T16:06:11.776Z,15.25
2023-04-05T16:10:15.546Z,15.01
2023-04-05T16:14:18.070Z,14.86
2023-04-05T16:18:20.480Z,14.50
2023-04-05T16:22:21.265Z,14.09
2023-04-05T16:26:25.159Z,14.08
2023-04-05T16:30:26.242Z,14.67
2023-04-05T16:34:26.959Z,15.29
2023-04-05T16:38:27.897Z,15.64
2023-04-05T16:42:33.607Z,15.80
2023-04-05T16:46:34.333Z,16.15
2023-04-05T16:50:36.267Z,16.47
2023-04-05T16:54:37.166Z,16.43
2023-04-05T16:58:41.334Z,16.32
2023-04-05T17:02:41.780Z,16.48
2023-04-05T17:06:43.311Z,15.73
2023-04-05T17:10:43.716Z,15.46
2023-04-05T17:14:49.656Z,14.92
2023-04-05T17:18:50.168Z,14.58
2023-04-05T17:22:51.810Z,14.09
2023-04-05T17:26:52.350Z,13.65
2023-04-05T17:30:57.193Z,13.12
2023-04-05T17:34:58.024Z,12.98
2023-04-05T17:38:59.855Z,12.84
2023-04-05T17:43:01.047Z,12.55
2023-04-05T17:47:09.050Z,12.16
2023-04-05T17:51:15.791Z,11.65
2023-04-05T17:55:17.133Z,11.43
2023-04-05T17:59:18.987Z,11.17
2023-04-05T18:03:25.327Z,10.75
2023-04-05T18:07:29.665Z,10.55
2023-04-05T18:11:30.126Z,10.34
2023-04-05T18:15:30.876Z,10.21
2023-04-05T18:19:35.312Z,10.03
2023-04-05T18:23:37.149Z,9.74
2023-04-05T18:27:37.765Z,9.45
2023-04-05T18:31:38.694Z,9.46
2023-04-05T18:35:44.136Z,9.44
2023-04-05T18:39:46.373Z,9.31
2023-04-05T18:43:48.319Z,9.27
2023-04-05T18:47:49.232Z,8.99
2023-04-05T18:51:53.294Z,8.84
2023-04-05T18:55:55.839Z,8.70
2023-04-05T18:59:56.224Z,8.52
2023-04-05T19:03:57.548Z,8.34
2023-04-05T19:08:01.046Z,8.22
2023-04-05T19:12:01.606Z,8.30
2023-04-05T19:16:02.559Z,8.43
2023-04-05T19:20:04.399Z,8.39
2023-04-05T19:24:10.001Z,8.27
2023-04-05T19:28:11.980Z,8.11
2023-04-05T19:32:13.123Z,8.02
2023-04-05T19:36:13.785Z,7.63
2023-04-05T19:40:17.120Z,7.52
2023-04-05T19:44:41.365Z,7.42
2023-04-05T19:48:43.565Z,7.30
2023-04-05T19:52:51.046Z,7.06
2023-04-05T19:56:55.010Z,7.08
2023-04-05T20:00:56.512Z,7.09
2023-04-05T20:04:59.276Z,7.10
2023-04-05T20:09:07.931Z,7.11
2023-04-05T20:13:12.387Z,7.08
2023-04-05T20:17:16.689Z,7.00
2023-04-05T20:21:19.764Z,6.98
2023-04-05T20:25:40.755Z,7.02
2023-04-05T20:29:43.930Z,6.77
2023-04-05T20:34:00.253Z,6.92
2023-04-05T20:38:01.790Z,6.85
2023-04-05T20:42:03.985Z,6.40
2023-04-05T20:46:09.610Z,6.13
2023-04-05T20:50:13.215Z,6.19
2023-04-05T20:54:14.353Z,6.01
2023-04-05T20:58:17.140Z,5.87
2023-04-05T21:02:22.776Z,5.81
2023-04-05T21:06:23.343Z,5.72
2023-04-05T21:10:25.020Z,5.74
2023-04-05T21:14:25.374Z,5.68
2023-04-05T21:18:30.938Z,5.64
2023-04-05T21:22:32.573Z,5.64
2023-04-05T21:26:33.129Z,5.52
2023-04-05T21:30:33.561Z,5.41
2023-04-05T21:34:38.597Z,5.46
2023-04-05T21:38:38.969Z,5.31
2023-04-05T21:42:39.696Z,5.19
2023-04-05T21:46:40.212Z,5.08
2023-04-05T21:50:43.621Z,5.07
2023-04-05T21:54:44.142Z,4.95
2023-04-05T21:58:45.003Z,4.76
2023-04-05T22:02:47.027Z,4.62
2023-04-05T22:06:50.260Z,4.67
2023-04-05T22:10:50.597Z,4.70
2023-04-05T22:14:51.144Z,4.61
2023-04-05T22:18:51.455Z,4.65
2023-04-05T22:22:54.328Z,4.81
2023-04-05T22:26:56.891Z,4.79
2023-04-05T22:30:57.877Z,4.74
2023-04-05T22:34:58.653Z,4.76
2023-04-05T22:39:02.182Z,4.47
2023-04-05T22:43:02.608Z,4.58
2023-04-05T22:47:03.539Z,4.58
2023-04-05T22:51:04.430Z,4.68
2023-04-05T22:55:09.167Z,4.65
2023-04-05T22:59:09.781Z,4.68
2023-04-05T23:03:10.445Z,4.69
2023-04-05T23:07:10.911Z,4.59
2023-04-05T23:11:13.859Z,4.51
2023-04-05T23:15:15.360Z,4.40
2023-04-05T23:19:16.769Z,4.42
2023-04-05T23:23:17.364Z,4.54
2023-04-05T23:27:21.426Z,4.47
2023-04-05T23:31:22.047Z,4.41
2023-04-05T23:35:22.739Z,4.42
2023-04-05T23:39:23.182Z,4.27
2023-04-05T23:43:26.369Z,4.11
2023-04-05T23:47:26.797Z,4.10
2023-04-05T23:51:27.343Z,3.88
2023-04-05T23:55:27.677Z,3.83
2023-04-05T23:59:31.089Z,3.84
